sensor_id;sensor_type;location;lat;lon;timestamp;P1;durP1;ratioP1;P2;durP2;ratioP2
6007;SDS011;3032;49.484;11.112;2023-08-24T00:01:31;9.87;;;7.27;;
6007;SDS011;3032;49.484;11.112;2023-08-24T00:03:57;8.80;;;7.50;;
6007;SDS011;3032;49.484;11.112;2023-08-24T00:06:22;10.73;;;7.27;;
6007;SDS011;3032;49.484;11.112;2023-08-24T00:08:48;9.73;;;7.97;;
6007;SDS011;3032;49.484;11.112;2023-08-24T00:11:13;8.33;;;7.53;;
6007;SDS011;3032;49.484;11.112;2023-08-24T00:13:43;10.30;;;8.30;;
6007;SDS011;3032;49.484;11.112;2023-08-24T00:16:17;9.85;;;8.77;;
6007;SDS011;3032;49.484;11.112;2023-08-24T00:18:44;11.10;;;8.40;;
6007;SDS011;3032;49.484;11.112;2023-08-24T00:21:10;9.90;;;8.87;;
6007;SDS011;3032;49.484;11.112;2023-08-24T00:23:37;9.57;;;8.52;;
6007;SDS011;3032;49.484;11.112;2023-08-24T00:26:03;9.47;;;8.53;;
6007;SDS011;3032;49.484;11.112;2023-08-24T00:28:29;9.80;;;8.80;;
6007;SDS011;3032;49.484;11.112;2023-08-24T00:30:55;8.67;;;7.80;;
6007;SDS011;3032;49.484;11.112;2023-08-24T00:33:20;10.40;;;8.00;;
6007;SDS011;3032;49.484;11.112;2023-08-24T00:35:46;8.83;;;7.63;;
6007;SDS011;3032;49.484;11.112;2023-08-24T00:38:11;10.13;;;8.67;;
6007;SDS011;3032;49.484;11.112;2023-08-24T00:40:37;9.40;;;8.57;;
6007;SDS011;3032;49.484;11.112;2023-08-24T00:43:04;11.02;;;8.10;;
6007;SDS011;3032;49.484;11.112;2023-08-24T00:45:29;10.10;;;9.20;;
6007;SDS011;3032;49.484;11.112;2023-08-24T00:47:58;17.02;;;8.90;;
6007;SDS011;3032;49.484;11.112;2023-08-24T00:50:24;10.70;;;9.35;;
6007;SDS011;3032;49.484;11.112;2023-08-24T00:52:49;12.20;;;8.87;;
6007;SDS011;3032;49.484;11.112;2023-08-24T00:55:15;9.17;;;8.20;;
6007;SDS011;3032;49.484;11.112;2023-08-24T00:57:42;12.98;;;8.75;;
6007;SDS011;3032;49.484;11.112;2023-08-24T01:00:08;14.13;;;9.00;;
6007;SDS011;3032;49.484;11.112;2023-08-24T01:02:35;9.52;;;8.40;;
6007;SDS011;3032;49.484;11.112;2023-08-24T01:05:01;9.63;;;8.63;;
6007;SDS011;3032;49.484;11.112;2023-08-24T01:07:29;9.52;;;8.43;;
6007;SDS011;3032;49.484;11.112;2023-08-24T01:09:55;14.40;;;8.98;;
6007;SDS011;3032;49.484;11.112;2023-08-24T01:15:13;11.10;;;8.35;;
6007;SDS011;3032;49.484;11.112;2023-08-24T01:17:47;12.93;;;8.63;;
6007;SDS011;3032;49.484;11.112;2023-08-24T01:20:14;9.75;;;7.90;;
6007;SDS011;3032;49.484;11.112;2023-08-24T01:22:44;8.98;;;8.07;;
6007;SDS011;3032;49.484;11.112;2023-08-24T01:28:17;8.85;;;8.10;;
6007;SDS011;3032;49.484;11.112;2023-08-24T01:30:45;9.52;;;8.60;;
6007;SDS011;3032;49.484;11.112;2023-08-24T01:33:11;9.40;;;7.60;;
6007;SDS011;3032;49.484;11.112;2023-08-24T01:35:37;10.87;;;9.03;;
6007;SDS011;3032;49.484;11.112;2023-08-24T01:38:03;11.32;;;8.30;;
6007;SDS011;3032;49.484;11.112;2023-08-24T01:41:16;10.45;;;8.88;;
6007;SDS011;3032;49.484;11.112;2023-08-24T01:43:21;11.43;;;8.88;;
6007;SDS011;3032;49.484;11.112;2023-08-24T01:45:51;9.68;;;8.73;;
6007;SDS011;3032;49.484;11.112;2023-08-24T01:48:18;11.23;;;8.52;;
6007;SDS011;3032;49.484;11.112;2023-08-24T01:50:44;10.48;;;8.20;;
6007;SDS011;3032;49.484;11.112;2023-08-24T01:53:11;12.45;;;8.38;;
6007;SDS011;3032;49.484;11.112;2023-08-24T01:55:37;9.40;;;8.23;;
6007;SDS011;3032;49.484;11.112;2023-08-24T01:58:02;11.00;;;10.00;;
6007;SDS011;3032;49.484;11.112;2023-08-24T02:00:28;11.30;;;8.40;;
6007;SDS011;3032;49.484;11.112;2023-08-24T02:02:53;10.47;;;8.47;;
6007;SDS011;3032;49.484;11.112;2023-08-24T02:05:19;10.13;;;9.07;;
6007;SDS011;3032;49.484;11.112;2023-08-24T02:07:44;9.50;;;8.60;;
6007;SDS011;3032;49.484;11.112;2023-08-24T02:10:10;9.00;;;8.10;;
6007;SDS011;3032;49.484;11.112;2023-08-24T02:12:36;10.00;;;9.20;;
6007;SDS011;3032;49.484;11.112;2023-08-24T02:15:01;9.50;;;8.50;;
6007;SDS011;3032;49.484;11.112;2023-08-24T02:17:27;10.93;;;8.50;;
6007;SDS011;3032;49.484;11.112;2023-08-24T02:19:53;9.63;;;8.70;;
6007;SDS011;3032;49.484;11.112;2023-08-24T02:22:18;8.93;;;8.13;;
6007;SDS011;3032;49.484;11.112;2023-08-24T02:24:44;10.73;;;9.70;;
6007;SDS011;3032;49.484;11.112;2023-08-24T02:27:09;9.73;;;8.07;;
6007;SDS011;3032;49.484;11.112;2023-08-24T02:29:35;9.73;;;8.83;;
6007;SDS011;3032;49.484;11.112;2023-08-24T02:32:02;11.45;;;8.07;;
6007;SDS011;3032;49.484;11.112;2023-08-24T02:34:27;9.53;;;8.63;;
6007;SDS011;3032;49.484;11.112;2023-08-24T02:36:53;8.23;;;7.60;;
6007;SDS011;3032;49.484;11.112;2023-08-24T02:39:18;10.37;;;9.47;;
6007;SDS011;3032;49.484;11.112;2023-08-24T02:41:44;9.73;;;8.87;;
6007;SDS011;3032;49.484;11.112;2023-08-24T02:44:09;9.40;;;8.47;;
6007;SDS011;3032;49.484;11.112;2023-08-24T02:46:35;9.77;;;8.53;;
6007;SDS011;3032;49.484;11.112;2023-08-24T02:49:00;9.50;;;8.60;;
6007;SDS011;3032;49.484;11.112;2023-08-24T02:51:26;10.07;;;9.17;;
6007;SDS011;3032;49.484;11.112;2023-08-24T02:53:52;9.87;;;9.07;;
6007;SDS011;3032;49.484;11.112;2023-08-24T02:56:17;10.13;;;9.10;;
6007;SDS011;3032;49.484;11.112;2023-08-24T02:58:43;12.57;;;10.00;;
6007;SDS011;3032;49.484;11.112;2023-08-24T03:01:08;9.83;;;8.83;;
6007;SDS011;3032;49.484;11.112;2023-08-24T03:03:34;11.07;;;10.07;;
6007;SDS011;3032;49.484;11.112;2023-08-24T03:06:01;11.43;;;10.43;;
6007;SDS011;3032;49.484;11.112;2023-08-24T03:08:29;9.30;;;8.55;;
6007;SDS011;3032;49.484;11.112;2023-08-24T03:10:56;9.57;;;8.57;;
6007;SDS011;3032;49.484;11.112;2023-08-24T03:13:22;9.80;;;8.88;;
6007;SDS011;3032;49.484;11.112;2023-08-24T03:15:48;11.10;;;10.10;;
6007;SDS011;3032;49.484;11.112;2023-08-24T03:18:15;12.07;;;10.80;;
6007;SDS011;3032;49.484;11.112;2023-08-24T03:20:41;10.88;;;9.77;;
6007;SDS011;3032;49.484;11.112;2023-08-24T03:23:09;9.02;;;8.18;;
6007;SDS011;3032;49.484;11.112;2023-08-24T03:25:35;10.27;;;9.27;;
6007;SDS011;3032;49.484;11.112;2023-08-24T03:28:02;9.32;;;8.43;;
6007;SDS011;3032;49.484;11.112;2023-08-24T03:30:29;10.63;;;9.55;;
6007;SDS011;3032;49.484;11.112;2023-08-24T03:32:54;10.00;;;9.07;;
6007;SDS011;3032;49.484;11.112;2023-08-24T03:35:20;10.57;;;9.67;;
6007;SDS011;3032;49.484;11.112;2023-08-24T03:37:46;11.93;;;8.63;;
6007;SDS011;3032;49.484;11.112;2023-08-24T03:40:11;9.43;;;8.53;;
6007;SDS011;3032;49.484;11.112;2023-08-24T03:42:37;10.70;;;9.80;;
6007;SDS011;3032;49.484;11.112;2023-08-24T03:45:03;12.30;;;9.30;;
6007;SDS011;3032;49.484;11.112;2023-08-24T03:47:29;8.43;;;7.63;;
6007;SDS011;3032;49.484;11.112;2023-08-24T03:49:55;8.53;;;7.77;;
6007;SDS011;3032;49.484;11.112;2023-08-24T03:52:20;10.60;;;8.83;;
6007;SDS011;3032;49.484;11.112;2023-08-24T03:54:46;10.57;;;9.47;;
6007;SDS011;3032;49.484;11.112;2023-08-24T03:57:11;12.07;;;9.23;;
6007;SDS011;3032;49.484;11.112;2023-08-24T03:59:37;10.63;;;9.50;;
6007;SDS011;3032;49.484;11.112;2023-08-24T04:02:03;11.27;;;10.27;;
6007;SDS011;3032;49.484;11.112;2023-08-24T04:04:29;10.60;;;9.43;;
6007;SDS011;3032;49.484;11.112;2023-08-24T04:06:55;9.32;;;8.27;;
6007;SDS011;3032;49.484;11.112;2023-08-24T04:09:21;9.47;;;8.67;;
6007;SDS011;3032;49.484;11.112;2023-08-24T04:11:46;8.90;;;8.10;;
6007;SDS011;3032;49.484;11.112;2023-08-24T04:14:12;9.63;;;8.67;;
6007;SDS011;3032;49.484;11.112;2023-08-24T04:16:38;9.05;;;8.15;;
6007;SDS011;3032;49.484;11.112;2023-08-24T04:19:04;9.43;;;7.33;;
6007;SDS011;3032;49.484;11.112;2023-08-24T04:21:30;9.87;;;9.07;;
6007;SDS011;3032;49.484;11.112;2023-08-24T04:23:55;9.93;;;8.90;;
6007;SDS011;3032;49.484;11.112;2023-08-24T04:26:21;8.50;;;7.60;;
6007;SDS011;3032;49.484;11.112;2023-08-24T04:28:46;9.00;;;8.20;;
6007;SDS011;3032;49.484;11.112;2023-08-24T04:31:12;13.40;;;9.90;;
6007;SDS011;3032;49.484;11.112;2023-08-24T04:33:38;8.53;;;7.73;;
6007;SDS011;3032;49.484;11.112;2023-08-24T04:36:03;8.37;;;7.50;;
6007;SDS011;3032;49.484;11.112;2023-08-24T04:38:29;9.27;;;8.43;;
6007;SDS011;3032;49.484;11.112;2023-08-24T04:40:55;11.47;;;9.20;;
6007;SDS011;3032;49.484;11.112;2023-08-24T04:43:21;9.30;;;8.40;;
6007;SDS011;3032;49.484;11.112;2023-08-24T04:45:48;8.80;;;8.05;;
6007;SDS011;3032;49.484;11.112;2023-08-24T04:48:17;9.52;;;8.13;;
6007;SDS011;3032;49.484;11.112;2023-08-24T04:50:47;8.70;;;8.00;;
6007;SDS011;3032;49.484;11.112;2023-08-24T04:53:14;8.90;;;8.00;;
6007;SDS011;3032;49.484;11.112;2023-08-24T04:55:43;8.70;;;8.00;;
6007;SDS011;3032;49.484;11.112;2023-08-24T04:58:09;9.30;;;8.55;;
6007;SDS011;3032;49.484;11.112;2023-08-24T05:00:36;8.35;;;7.57;;
6007;SDS011;3032;49.484;11.112;2023-08-24T05:03:03;11.02;;;8.43;;
6007;SDS011;3032;49.484;11.112;2023-08-24T05:05:30;9.88;;;7.43;;
6007;SDS011;3032;49.484;11.112;2023-08-24T05:07:57;7.97;;;6.93;;
6007;SDS011;3032;49.484;11.112;2023-08-24T05:10:24;7.97;;;5.70;;
6007;SDS011;3032;49.484;11.112;2023-08-24T05:12:49;7.53;;;5.97;;
6007;SDS011;3032;49.484;11.112;2023-08-24T05:15:15;6.27;;;5.77;;
6007;SDS011;3032;49.484;11.112;2023-08-24T05:17:41;7.93;;;5.60;;
6007;SDS011;3032;49.484;11.112;2023-08-24T05:20:07;6.60;;;6.00;;
6007;SDS011;3032;49.484;11.112;2023-08-24T05:22:33;8.10;;;6.72;;
6007;SDS011;3032;49.484;11.112;2023-08-24T05:24:59;6.80;;;5.35;;
6007;SDS011;3032;49.484;11.112;2023-08-24T05:27:25;6.47;;;5.87;;
6007;SDS011;3032;49.484;11.112;2023-08-24T05:29:51;5.23;;;4.83;;
6007;SDS011;3032;49.484;11.112;2023-08-24T05:32:16;7.20;;;5.60;;
6007;SDS011;3032;49.484;11.112;2023-08-24T05:34:42;5.47;;;4.97;;
6007;SDS011;3032;49.484;11.112;2023-08-24T05:37:07;5.20;;;4.70;;
6007;SDS011;3032;49.484;11.112;2023-08-24T05:39:33;6.20;;;4.90;;
6007;SDS011;3032;49.484;11.112;2023-08-24T05:41:58;12.23;;;4.90;;
6007;SDS011;3032;49.484;11.112;2023-08-24T05:44:24;8.73;;;5.47;;
6007;SDS011;3032;49.484;11.112;2023-08-24T05:46:49;6.47;;;4.63;;
6007;SDS011;3032;49.484;11.112;2023-08-24T05:49:15;4.87;;;4.47;;
6007;SDS011;3032;49.484;11.112;2023-08-24T05:51:41;4.93;;;4.53;;
6007;SDS011;3032;49.484;11.112;2023-08-24T05:54:06;5.53;;;4.20;;
6007;SDS011;3032;49.484;11.112;2023-08-24T05:56:32;9.17;;;4.10;;
6007;SDS011;3032;49.484;11.112;2023-08-24T05:58:57;5.23;;;4.70;;
6007;SDS011;3032;49.484;11.112;2023-08-24T06:01:23;4.87;;;4.40;;
6007;SDS011;3032;49.484;11.112;2023-08-24T06:03:49;5.07;;;4.68;;
6007;SDS011;3032;49.484;11.112;2023-08-24T06:06:15;6.78;;;4.53;;
6007;SDS011;3032;49.484;11.112;2023-08-24T06:08:41;4.70;;;4.33;;
6007;SDS011;3032;49.484;11.112;2023-08-24T06:11:07;5.10;;;4.55;;
6007;SDS011;3032;49.484;11.112;2023-08-24T06:13:33;6.97;;;4.83;;
6007;SDS011;3032;49.484;11.112;2023-08-24T06:15:59;5.60;;;5.10;;
6007;SDS011;3032;49.484;11.112;2023-08-24T06:18:25;8.23;;;5.30;;
6007;SDS011;3032;49.484;11.112;2023-08-24T06:20:50;9.70;;;5.60;;
6007;SDS011;3032;49.484;11.112;2023-08-24T06:23:16;11.50;;;6.17;;
6007;SDS011;3032;49.484;11.112;2023-08-24T06:25:42;6.13;;;5.50;;
6007;SDS011;3032;49.484;11.112;2023-08-24T06:28:09;6.45;;;5.72;;
6007;SDS011;3032;49.484;11.112;2023-08-24T06:33:28;6.75;;;6.13;;
6007;SDS011;3032;49.484;11.112;2023-08-24T06:35:55;6.97;;;6.28;;
6007;SDS011;3032;49.484;11.112;2023-08-24T06:38:21;6.05;;;5.43;;
6007;SDS011;3032;49.484;11.112;2023-08-24T06:40:47;7.50;;;6.27;;
6007;SDS011;3032;49.484;11.112;2023-08-24T06:43:12;6.73;;;5.00;;
6007;SDS011;3032;49.484;11.112;2023-08-24T06:45:38;7.33;;;5.00;;
6007;SDS011;3032;49.484;11.112;2023-08-24T06:48:04;6.85;;;6.25;;
6007;SDS011;3032;49.484;11.112;2023-08-24T06:50:32;5.80;;;5.13;;
6007;SDS011;3032;49.484;11.112;2023-08-24T06:52:58;5.93;;;5.32;;
6007;SDS011;3032;49.484;11.112;2023-08-24T06:55:23;7.67;;;5.87;;
6007;SDS011;3032;49.484;11.112;2023-08-24T06:57:49;5.30;;;4.57;;
6007;SDS011;3032;49.484;11.112;2023-08-24T07:00:18;4.68;;;4.05;;
6007;SDS011;3032;49.484;11.112;2023-08-24T07:02:45;5.03;;;4.25;;
6007;SDS011;3032;49.484;11.112;2023-08-24T07:05:14;4.35;;;4.00;;
6007;SDS011;3032;49.484;11.112;2023-08-24T07:07:39;4.70;;;4.00;;
6007;SDS011;3032;49.484;11.112;2023-08-24T07:10:08;4.70;;;4.30;;
6007;SDS011;3032;49.484;11.112;2023-08-24T07:12:34;6.57;;;4.90;;
6007;SDS011;3032;49.484;11.112;2023-08-24T07:14:59;8.97;;;4.13;;
6007;SDS011;3032;49.484;11.112;2023-08-24T07:17:25;7.57;;;5.10;;
6007;SDS011;3032;49.484;11.112;2023-08-24T07:19:51;4.60;;;4.20;;
6007;SDS011;3032;49.484;11.112;2023-08-24T07:22:16;6.83;;;5.27;;
6007;SDS011;3032;49.484;11.112;2023-08-24T07:24:43;6.68;;;4.55;;
6007;SDS011;3032;49.484;11.112;2023-08-24T07:27:08;5.20;;;4.80;;
6007;SDS011;3032;49.484;11.112;2023-08-24T07:29:34;5.77;;;4.80;;
6007;SDS011;3032;49.484;11.112;2023-08-24T07:32:00;5.30;;;4.50;;
6007;SDS011;3032;49.484;11.112;2023-08-24T07:34:26;7.70;;;4.67;;
6007;SDS011;3032;49.484;11.112;2023-08-24T07:36:51;5.93;;;4.80;;
6007;SDS011;3032;49.484;11.112;2023-08-24T07:39:18;9.45;;;3.60;;
6007;SDS011;3032;49.484;11.112;2023-08-24T07:41:44;4.00;;;3.70;;
6007;SDS011;3032;49.484;11.112;2023-08-24T07:44:10;4.72;;;3.95;;
6007;SDS011;3032;49.484;11.112;2023-08-24T07:46:35;5.50;;;4.30;;
6007;SDS011;3032;49.484;11.112;2023-08-24T07:49:01;7.30;;;4.47;;
6007;SDS011;3032;49.484;11.112;2023-08-24T07:51:26;6.17;;;3.90;;
6007;SDS011;3032;49.484;11.112;2023-08-24T07:53:53;3.80;;;3.50;;
6007;SDS011;3032;49.484;11.112;2023-08-24T07:56:19;4.97;;;4.50;;
6007;SDS011;3032;49.484;11.112;2023-08-24T07:58:45;6.07;;;4.17;;
6007;SDS011;3032;49.484;11.112;2023-08-24T08:01:11;6.93;;;3.47;;
6007;SDS011;3032;49.484;11.112;2023-08-24T08:03:37;4.43;;;3.25;;
6007;SDS011;3032;49.484;11.112;2023-08-24T08:06:02;4.13;;;3.60;;
6007;SDS011;3032;49.484;11.112;2023-08-24T08:08:29;4.20;;;3.10;;
6007;SDS011;3032;49.484;11.112;2023-08-24T08:10:59;4.83;;;3.40;;
6007;SDS011;3032;49.484;11.112;2023-08-24T08:13:25;5.55;;;3.10;;
6007;SDS011;3032;49.484;11.112;2023-08-24T08:15:51;3.10;;;2.88;;
6007;SDS011;3032;49.484;11.112;2023-08-24T08:18:17;5.87;;;2.97;;
6007;SDS011;3032;49.484;11.112;2023-08-24T08:20:42;3.07;;;2.70;;
6007;SDS011;3032;49.484;11.112;2023-08-24T08:23:08;2.93;;;2.40;;
6007;SDS011;3032;49.484;11.112;2023-08-24T08:25:33;3.43;;;3.23;;
6007;SDS011;3032;49.484;11.112;2023-08-24T08:27:59;3.30;;;2.50;;
6007;SDS011;3032;49.484;11.112;2023-08-24T08:30:25;4.90;;;2.90;;
6007;SDS011;3032;49.484;11.112;2023-08-24T08:32:50;5.07;;;2.53;;
6007;SDS011;3032;49.484;11.112;2023-08-24T08:35:17;2.90;;;2.60;;
6007;SDS011;3032;49.484;11.112;2023-08-24T08:37:43;3.42;;;2.70;;
6007;SDS011;3032;49.484;11.112;2023-08-24T08:40:09;2.73;;;2.63;;
6007;SDS011;3032;49.484;11.112;2023-08-24T08:42:35;3.80;;;3.00;;
6007;SDS011;3032;49.484;11.112;2023-08-24T08:45:02;3.00;;;2.80;;
6007;SDS011;3032;49.484;11.112;2023-08-24T08:47:32;3.38;;;2.10;;
6007;SDS011;3032;49.484;11.112;2023-08-24T08:49:58;3.30;;;2.23;;
6007;SDS011;3032;49.484;11.112;2023-08-24T08:52:27;7.10;;;2.67;;
6007;SDS011;3032;49.484;11.112;2023-08-24T08:54:53;8.40;;;2.47;;
6007;SDS011;3032;49.484;11.112;2023-08-24T08:57:19;4.70;;;2.30;;
6007;SDS011;3032;49.484;11.112;2023-08-24T08:59:48;4.30;;;2.28;;
6007;SDS011;3032;49.484;11.112;2023-08-24T09:02:16;4.50;;;2.53;;
6007;SDS011;3032;49.484;11.112;2023-08-24T09:04:43;2.65;;;2.20;;
6007;SDS011;3032;49.484;11.112;2023-08-24T09:07:10;2.45;;;2.25;;
6007;SDS011;3032;49.484;11.112;2023-08-24T09:09:37;2.47;;;2.30;;
6007;SDS011;3032;49.484;11.112;2023-08-24T09:12:04;2.42;;;2.22;;
6007;SDS011;3032;49.484;11.112;2023-08-24T09:14:31;3.03;;;1.90;;
6007;SDS011;3032;49.484;11.112;2023-08-24T09:16:57;3.60;;;2.25;;
6007;SDS011;3032;49.484;11.112;2023-08-24T09:19:29;2.70;;;2.27;;
6007;SDS011;3032;49.484;11.112;2023-08-24T09:21:59;3.00;;;2.40;;
6007;SDS011;3032;49.484;11.112;2023-08-24T09:24:32;2.50;;;2.40;;
6007;SDS011;3032;49.484;11.112;2023-08-24T09:26:59;7.82;;;2.30;;
6007;SDS011;3032;49.484;11.112;2023-08-24T09:29:25;4.63;;;2.75;;
6007;SDS011;3032;49.484;11.112;2023-08-24T09:31:51;5.57;;;2.80;;
6007;SDS011;3032;49.484;11.112;2023-08-24T09:34:20;3.20;;;2.80;;
6007;SDS011;3032;49.484;11.112;2023-08-24T09:36:46;3.65;;;2.35;;
6007;SDS011;3032;49.484;11.112;2023-08-24T09:39:12;3.00;;;2.80;;
6007;SDS011;3032;49.484;11.112;2023-08-24T09:41:43;2.88;;;2.35;;
6007;SDS011;3032;49.484;11.112;2023-08-24T09:44:10;3.35;;;2.30;;
6007;SDS011;3032;49.484;11.112;2023-08-24T09:46:39;2.78;;;2.58;;
6007;SDS011;3032;49.484;11.112;2023-08-24T09:49:06;12.68;;;2.80;;
6007;SDS011;3032;49.484;11.112;2023-08-24T09:51:33;4.00;;;2.42;;
6007;SDS011;3032;49.484;11.112;2023-08-24T09:54:01;4.57;;;2.22;;
6007;SDS011;3032;49.484;11.112;2023-08-24T09:56:31;3.80;;;2.25;;
6007;SDS011;3032;49.484;11.112;2023-08-24T09:59:02;2.58;;;2.38;;
6007;SDS011;3032;49.484;11.112;2023-08-24T10:01:43;3.00;;;2.15;;
6007;SDS011;3032;49.484;11.112;2023-08-24T10:04:11;2.35;;;2.25;;
6007;SDS011;3032;49.484;11.112;2023-08-24T10:06:39;4.18;;;2.25;;
6007;SDS011;3032;49.484;11.112;2023-08-24T10:09:08;9.90;;;2.10;;
6007;SDS011;3032;49.484;11.112;2023-08-24T10:11:40;2.72;;;2.03;;
6007;SDS011;3032;49.484;11.112;2023-08-24T10:17:17;2.95;;;2.60;;
6007;SDS011;3032;49.484;11.112;2023-08-24T10:19:43;4.97;;;2.33;;
6007;SDS011;3032;49.484;11.112;2023-08-24T10:22:09;3.20;;;2.00;;
6007;SDS011;3032;49.484;11.112;2023-08-24T10:24:36;2.60;;;2.37;;
6007;SDS011;3032;49.484;11.112;2023-08-24T10:27:02;4.60;;;1.97;;
6007;SDS011;3032;49.484;11.112;2023-08-24T10:29:29;2.87;;;2.67;;
6007;SDS011;3032;49.484;11.112;2023-08-24T10:31:55;5.40;;;2.23;;
6007;SDS011;3032;49.484;11.112;2023-08-24T10:34:21;3.77;;;2.30;;
6007;SDS011;3032;49.484;11.112;2023-08-24T10:36:48;3.40;;;2.15;;
6007;SDS011;3032;49.484;11.112;2023-08-24T10:39:17;2.60;;;2.07;;
6007;SDS011;3032;49.484;11.112;2023-08-24T10:41:48;2.20;;;2.00;;
6007;SDS011;3032;49.484;11.112;2023-08-24T10:44:22;2.17;;;1.95;;
6007;SDS011;3032;49.484;11.112;2023-08-24T10:47:08;3.78;;;2.65;;
6007;SDS011;3032;49.484;11.112;2023-08-24T10:49:37;4.53;;;2.13;;
6007;SDS011;3032;49.484;11.112;2023-08-24T10:52:19;2.40;;;2.13;;
6007;SDS011;3032;49.484;11.112;2023-08-24T10:54:46;7.78;;;2.78;;
6007;SDS011;3032;49.484;11.112;2023-08-24T10:57:22;3.58;;;2.28;;
6007;SDS011;3032;49.484;11.112;2023-08-24T11:00:09;5.97;;;1.90;;
6007;SDS011;3032;49.484;11.112;2023-08-24T11:02:46;3.50;;;2.00;;
6007;SDS011;3032;49.484;11.112;2023-08-24T11:05:17;3.00;;;2.30;;
6007;SDS011;3032;49.484;11.112;2023-08-24T11:07:56;7.63;;;2.00;;
6007;SDS011;3032;49.484;11.112;2023-08-24T11:10:23;2.23;;;2.10;;
6007;SDS011;3032;49.484;11.112;2023-08-24T11:15:37;3.03;;;2.43;;
6007;SDS011;3032;49.484;11.112;2023-08-24T11:18:20;3.87;;;2.63;;
6007;SDS011;3032;49.484;11.112;2023-08-24T11:20:52;3.03;;;2.30;;
6007;SDS011;3032;49.484;11.112;2023-08-24T11:23:21;2.50;;;2.30;;
6007;SDS011;3032;49.484;11.112;2023-08-24T11:25:49;2.33;;;2.07;;
6007;SDS011;3032;49.484;11.112;2023-08-24T11:28:19;5.63;;;2.57;;
6007;SDS011;3032;49.484;11.112;2023-08-24T11:30:47;6.20;;;2.33;;
6007;SDS011;3032;49.484;11.112;2023-08-24T11:33:13;4.80;;;2.40;;
6007;SDS011;3032;49.484;11.112;2023-08-24T11:35:41;5.47;;;2.60;;
6007;SDS011;3032;49.484;11.112;2023-08-24T11:38:07;2.83;;;2.50;;
6007;SDS011;3032;49.484;11.112;2023-08-24T11:40:33;5.30;;;2.50;;
6007;SDS011;3032;49.484;11.112;2023-08-24T11:42:58;5.20;;;2.80;;
6007;SDS011;3032;49.484;11.112;2023-08-24T11:45:29;4.63;;;2.90;;
6007;SDS011;3032;49.484;11.112;2023-08-24T11:47:58;2.75;;;2.50;;
6007;SDS011;3032;49.484;11.112;2023-08-24T11:50:27;2.65;;;2.55;;
6007;SDS011;3032;49.484;11.112;2023-08-24T11:52:53;5.15;;;2.30;;
6007;SDS011;3032;49.484;11.112;2023-08-24T11:55:20;4.77;;;2.30;;
6007;SDS011;3032;49.484;11.112;2023-08-24T11:57:46;4.63;;;2.07;;
6007;SDS011;3032;49.484;11.112;2023-08-24T12:00:12;2.40;;;2.30;;
6007;SDS011;3032;49.484;11.112;2023-08-24T12:02:39;3.60;;;2.58;;
6007;SDS011;3032;49.484;11.112;2023-08-24T12:05:06;3.85;;;2.60;;
6007;SDS011;3032;49.484;11.112;2023-08-24T12:07:32;5.27;;;2.67;;
6007;SDS011;3032;49.484;11.112;2023-08-24T12:10:01;2.70;;;2.40;;
6007;SDS011;3032;49.484;11.112;2023-08-24T12:12:27;2.58;;;2.45;;
6007;SDS011;3032;49.484;11.112;2023-08-24T12:14:54;2.73;;;2.53;;
6007;SDS011;3032;49.484;11.112;2023-08-24T12:17:20;3.97;;;3.30;;
6007;SDS011;3032;49.484;11.112;2023-08-24T12:19:57;4.23;;;2.80;;
6007;SDS011;3032;49.484;11.112;2023-08-24T12:22:25;4.57;;;3.10;;
6007;SDS011;3032;49.484;11.112;2023-08-24T12:24:50;3.20;;;2.60;;
6007;SDS011;3032;49.484;11.112;2023-08-24T12:27:19;9.57;;;2.90;;
6007;SDS011;3032;49.484;11.112;2023-08-24T12:29:46;3.47;;;3.05;;
6007;SDS011;3032;49.484;11.112;2023-08-24T12:32:12;8.05;;;3.17;;
6007;SDS011;3032;49.484;11.112;2023-08-24T12:34:40;3.55;;;3.25;;
6007;SDS011;3032;49.484;11.112;2023-08-24T12:37:05;7.23;;;3.10;;
6007;SDS011;3032;49.484;11.112;2023-08-24T12:39:39;3.10;;;2.80;;
6007;SDS011;3032;49.484;11.112;2023-08-24T12:42:05;4.15;;;3.30;;
6007;SDS011;3032;49.484;11.112;2023-08-24T12:44:31;5.32;;;2.83;;
6007;SDS011;3032;49.484;11.112;2023-08-24T12:46:58;7.75;;;3.10;;
6007;SDS011;3032;49.484;11.112;2023-08-24T12:49:24;3.28;;;2.97;;
6007;SDS011;3032;49.484;11.112;2023-08-24T12:51:49;4.87;;;3.10;;
6007;SDS011;3032;49.484;11.112;2023-08-24T12:54:15;5.97;;;2.93;;
6007;SDS011;3032;49.484;11.112;2023-08-24T12:56:41;5.70;;;3.40;;
6007;SDS011;3032;49.484;11.112;2023-08-24T12:59:06;3.27;;;2.63;;
6007;SDS011;3032;49.484;11.112;2023-08-24T13:01:32;6.13;;;3.00;;
6007;SDS011;3032;49.484;11.112;2023-08-24T13:03:58;12.43;;;3.40;;
6007;SDS011;3032;49.484;11.112;2023-08-24T13:06:23;3.53;;;2.50;;
6007;SDS011;3032;49.484;11.112;2023-08-24T13:08:49;3.03;;;2.80;;
6007;SDS011;3032;49.484;11.112;2023-08-24T13:11:15;3.23;;;2.60;;
6007;SDS011;3032;49.484;11.112;2023-08-24T13:13:40;2.90;;;2.70;;
6007;SDS011;3032;49.484;11.112;2023-08-24T13:16:06;3.43;;;3.13;;
6007;SDS011;3032;49.484;11.112;2023-08-24T13:18:32;3.47;;;3.10;;
6007;SDS011;3032;49.484;11.112;2023-08-24T13:20:58;5.90;;;2.87;;
6007;SDS011;3032;49.484;11.112;2023-08-24T13:23:23;5.53;;;2.50;;
6007;SDS011;3032;49.484;11.112;2023-08-24T13:25:49;5.80;;;2.63;;
6007;SDS011;3032;49.484;11.112;2023-08-24T13:28:14;3.03;;;2.83;;
6007;SDS011;3032;49.484;11.112;2023-08-24T13:30:40;3.87;;;2.50;;
6007;SDS011;3032;49.484;11.112;2023-08-24T13:33:05;2.70;;;2.60;;
6007;SDS011;3032;49.484;11.112;2023-08-24T13:35:31;4.78;;;2.72;;
6007;SDS011;3032;49.484;11.112;2023-08-24T13:37:57;3.27;;;2.40;;
6007;SDS011;3032;49.484;11.112;2023-08-24T13:40:23;4.00;;;2.57;;
6007;SDS011;3032;49.484;11.112;2023-08-24T13:42:48;3.73;;;2.60;;
6007;SDS011;3032;49.484;11.112;2023-08-24T13:45:14;5.10;;;2.53;;
6007;SDS011;3032;49.484;11.112;2023-08-24T13:47:40;3.93;;;2.60;;
6007;SDS011;3032;49.484;11.112;2023-08-24T13:50:06;3.80;;;2.47;;
6007;SDS011;3032;49.484;11.112;2023-08-24T13:52:32;6.82;;;2.90;;
6007;SDS011;3032;49.484;11.112;2023-08-24T13:54:58;4.60;;;2.90;;
6007;SDS011;3032;49.484;11.112;2023-08-24T13:57:24;3.73;;;3.03;;
6007;SDS011;3032;49.484;11.112;2023-08-24T13:59:49;4.27;;;2.80;;
6007;SDS011;3032;49.484;11.112;2023-08-24T14:02:15;2.30;;;2.20;;
6007;SDS011;3032;49.484;11.112;2023-08-24T14:04:41;4.00;;;2.70;;
6007;SDS011;3032;49.484;11.112;2023-08-24T14:07:06;5.10;;;2.60;;
6007;SDS011;3032;49.484;11.112;2023-08-24T14:09:32;7.37;;;3.13;;
6007;SDS011;3032;49.484;11.112;2023-08-24T14:11:58;6.73;;;3.50;;
6007;SDS011;3032;49.484;11.112;2023-08-24T14:14:23;6.87;;;3.50;;
6007;SDS011;3032;49.484;11.112;2023-08-24T14:16:55;5.83;;;3.13;;
6007;SDS011;3032;49.484;11.112;2023-08-24T14:19:21;6.05;;;2.85;;
6007;SDS011;3032;49.484;11.112;2023-08-24T14:21:48;8.57;;;3.55;;
6007;SDS011;3032;49.484;11.112;2023-08-24T14:24:14;5.33;;;2.70;;
6007;SDS011;3032;49.484;11.112;2023-08-24T14:26:39;7.43;;;3.27;;
6007;SDS011;3032;49.484;11.112;2023-08-24T14:29:10;3.63;;;2.90;;
6007;SDS011;3032;49.484;11.112;2023-08-24T14:31:36;3.15;;;2.95;;
6007;SDS011;3032;49.484;11.112;2023-08-24T14:34:02;4.20;;;3.00;;
6007;SDS011;3032;49.484;11.112;2023-08-24T14:36:28;4.73;;;3.00;;
6007;SDS011;3032;49.484;11.112;2023-08-24T14:38:54;6.55;;;2.83;;
6007;SDS011;3032;49.484;11.112;2023-08-24T14:41:20;2.67;;;2.40;;
6007;SDS011;3032;49.484;11.112;2023-08-24T14:43:46;3.60;;;2.97;;
6007;SDS011;3032;49.484;11.112;2023-08-24T14:46:12;4.60;;;3.40;;
6007;SDS011;3032;49.484;11.112;2023-08-24T14:48:38;10.57;;;3.10;;
6007;SDS011;3032;49.484;11.112;2023-08-24T14:51:04;5.53;;;3.30;;
6007;SDS011;3032;49.484;11.112;2023-08-24T14:53:30;3.47;;;2.65;;
6007;SDS011;3032;49.484;11.112;2023-08-24T14:55:56;3.37;;;3.17;;
6007;SDS011;3032;49.484;11.112;2023-08-24T14:58:26;4.20;;;2.72;;
6007;SDS011;3032;49.484;11.112;2023-08-24T15:00:53;3.00;;;2.70;;
6007;SDS011;3032;49.484;11.112;2023-08-24T15:03:20;6.05;;;3.20;;
6007;SDS011;3032;49.484;11.112;2023-08-24T15:05:55;4.97;;;3.22;;
6007;SDS011;3032;49.484;11.112;2023-08-24T15:08:25;3.25;;;3.00;;
6007;SDS011;3032;49.484;11.112;2023-08-24T15:10:53;8.45;;;2.80;;